Time;durP1;ratioP1;P1;durP2;ratioP2;P2;SDS_P1;SDS_P2;PMS_P1;PMS_P2;Temp;Humidity;BMP_temperature;BMP_pressure;BME280_temperature;BME280_humidity;BME280_pressure;Samples;Min_cycle;Max_cycle;Signal;HPM_P1;HPM_P2
2021/08/01 00:00:45;;;;;;;35.33;23.73;;;19.80;98.10;;;;;;5013076;28;20920;-88
2021/08/01 00:03:12;;;;;;;31.30;22.00;;;19.80;99.50;;;;;;5019978;28;20487;-89
2021/08/01 00:05:42;;;;;;;20.57;13.07;;;19.60;99.90;;;;;;5020876;28;20447;-90
2021/08/01 00:08:09;;;;;;;8.30;6.33;;;19.50;99.90;;;;;;5022676;28;20490;-90
2021/08/01 00:10:37;;;;;;;12.03;8.20;;;19.40;99.90;;;;;;5022232;28;20467;-89
2021/08/01 00:13:04;;;;;;;12.23;8.50;;;19.30;99.90;;;;;;5023463;28;20447;-88
2021/08/01 00:15:31;;;;;;;9.43;8.10;;;19.10;99.90;;;;;;5023971;28;20442;-89
2021/08/01 00:17:57;;;;;;;5.47;4.87;;;19.00;99.90;;;;;;5033181;28;20460;-88
2021/08/01 00:20:24;;;;;;;5.90;4.90;;;18.70;99.90;;;;;;5030394;28;20470;-89
2021/08/01 00:22:52;;;;;;;7.23;5.80;;;18.60;99.90;;;;;;5032899;28;20442;-88
2021/08/01 00:25:19;;;;;;;6.90;5.70;;;18.40;99.90;;;;;;5021846;28;20471;-87
2021/08/01 00:27:46;;;;;;;5.67;4.50;;;18.50;99.90;;;;;;5018449;28;20550;-88
2021/08/01 00:30:13;;;;;;;6.77;5.40;;;18.20;99.90;;;;;;5019483;28;20868;-87
2021/08/01 00:32:40;;;;;;;5.50;4.63;;;18.10;99.90;;;;;;5026662;28;20438;-90
2021/08/01 00:35:08;;;;;;;8.37;5.60;;;18.00;99.90;;;;;;5024318;28;20483;-88
2021/08/01 00:37:34;;;;;;;6.53;5.90;;;17.80;99.90;;;;;;5025717;28;20501;-87
2021/08/01 00:40:03;;;;;;;9.73;5.77;;;17.70;99.90;;;;;;5030743;28;20476;-87
2021/08/01 00:42:29;;;;;;;6.93;6.00;;;17.70;99.90;;;;;;5024356;28;20450;-88
2021/08/01 00:44:56;;;;;;;10.03;5.83;;;17.80;99.90;;;;;;5022197;28;20442;-88
2021/08/01 00:47:23;;;;;;;7.20;6.30;;;17.70;99.90;;;;;;5036931;28;20430;-87
2021/08/01 00:49:50;;;;;;;7.57;5.63;;;17.60;99.90;;;;;;5030012;28;20862;-89
2021/08/01 00:52:17;;;;;;;6.83;5.30;;;17.60;99.90;;;;;;5022375;28;20461;-87
2021/08/01 00:54:44;;;;;;;8.93;5.40;;;17.60;99.90;;;;;;5020907;28;20539;-87
2021/08/01 00:57:12;;;;;;;6.30;4.90;;;17.60;99.90;;;;;;5027014;28;20464;-88
2021/08/01 00:59:41;;;;;;;7.40;6.37;;;17.60;99.90;;;;;;5019733;28;20462;-88
2021/08/01 01:02:13;;;;;;;6.90;6.23;;;17.70;99.90;;;;;;5022422;28;20457;-87
2021/08/01 01:04:49;;;;;;;7.10;6.37;;;17.70;99.90;;;;;;5020172;28;20529;-87
2021/08/01 01:07:20;;;;;;;7.23;6.63;;;17.60;99.90;;;;;;5020409;28;20523;-86
2021/08/01 01:09:54;;;;;;;10.00;7.87;;;17.70;99.90;;;;;;5051090;23;20485;-84
2021/08/01 01:12:30;;;;;;;8.63;7.40;;;17.70;99.90;;;;;;5060056;28;20440;-86
2021/08/01 01:14:57;;;;;;;7.77;7.13;;;17.70;99.90;;;;;;5057662;28;20476;-86
2021/08/01 01:17:29;;;;;;;8.83;6.83;;;17.70;99.90;;;;;;5059648;28;20448;-86
2021/08/01 01:20:29;;;;;;;7.40;6.70;;;17.70;99.90;;;;;;5058150;28;20492;-86
2021/08/01 01:23:13;;;;;;;8.40;7.67;;;17.70;99.90;;;;;;5043202;28;20445;-87
2021/08/01 01:25:45;;;;;;;7.40;6.67;;;17.70;99.90;;;;;;5066177;28;20930;-84
2021/08/01 01:28:18;;;;;;;7.70;7.00;;;17.80;99.90;;;;;;5062263;28;20449;-86
2021/08/01 01:30:52;;;;;;;11.10;6.67;;;17.70;99.90;;;;;;5072981;28;20449;-86
2021/08/01 01:33:24;;;;;;;7.90;7.10;;;17.70;99.90;;;;;;5064590;28;20448;-86
2021/08/01 01:35:55;;;;;;;7.40;6.00;;;17.70;99.90;;;;;;5062263;28;20797;-86
2021/08/01 01:38:26;;;;;;;6.20;5.60;;;17.60;99.90;;;;;;5045314;28;20453;-85
2021/08/01 01:40:55;;;;;;;10.83;6.07;;;17.60;99.90;;;;;;5041746;28;20465;-86
2021/08/01 01:43:23;;;;;;;8.47;7.00;;;17.50;99.90;;;;;;5050236;28;20452;-86
2021/08/01 01:45:52;;;;;;;7.33;6.73;;;17.50;99.90;;;;;;5058468;28;20432;-86
2021/08/01 01:48:18;;;;;;;10.90;7.60;;;17.50;99.90;;;;;;5060300;28;20456;-85
2021/08/01 01:50:46;;;;;;;11.20;8.23;;;17.40;99.90;;;;;;5072536;28;20476;-85
2021/08/01 01:53:13;;;;;;;8.47;7.63;;;17.30;99.90;;;;;;5071089;28;20444;-86
2021/08/01 01:55:42;;;;;;;9.30;7.80;;;17.30;99.90;;;;;;5062099;28;21034;-86
2021/08/01 01:58:11;;;;;;;8.30;7.20;;;17.30;99.90;;;;;;5059328;28;20498;-86
2021/08/01 02:00:38;;;;;;;7.27;6.60;;;17.30;99.90;;;;;;5061095;28;20853;-84
2021/08/01 02:03:05;;;;;;;8.10;7.40;;;17.30;99.90;;;;;;5067749;28;20520;-85
2021/08/01 02:05:32;;;;;;;9.83;7.53;;;17.30;99.90;;;;;;5068415;28;20455;-86
2021/08/01 02:07:58;;;;;;;8.53;6.80;;;17.30;99.90;;;;;;5061792;28;20450;-86
2021/08/01 02:10:31;;;;;;;7.53;6.83;;;17.30;99.90;;;;;;5057902;28;20490;-86
2021/08/01 02:13:05;;;;;;;8.33;7.53;;;17.20;99.90;;;;;;5060216;28;20461;-84
2021/08/01 02:15:39;;;;;;;7.67;7.07;;;17.20;99.90;;;;;;5051396;28;20482;-87
2021/08/01 02:18:09;;;;;;;9.73;7.53;;;17.20;99.90;;;;;;5038309;28;20456;-86
2021/08/01 02:20:40;;;;;;;12.47;8.73;;;17.20;99.90;;;;;;5039032;28;20468;-84
2021/08/01 02:23:09;;;;;;;7.70;7.00;;;17.20;99.90;;;;;;5041145;28;20461;-86
2021/08/01 02:25:37;;;;;;;7.53;6.83;;;17.20;99.90;;;;;;5037740;28;20492;-86
2021/08/01 02:28:07;;;;;;;7.70;6.97;;;17.20;99.90;;;;;;5039250;28;20862;-86
2021/08/01 02:30:35;;;;;;;8.10;6.87;;;17.20;99.90;;;;;;5039071;28;20477;-86
2021/08/01 02:33:03;;;;;;;9.03;8.13;;;17.10;99.90;;;;;;5048299;28;20441;-85
2021/08/01 02:35:31;;;;;;;8.77;7.97;;;17.00;99.90;;;;;;5048269;28;20442;-85
2021/08/01 02:38:00;;;;;;;8.97;7.63;;;17.00;99.90;;;;;;5040953;28;20454;-86
2021/08/01 02:40:30;;;;;;;9.73;8.73;;;16.90;99.90;;;;;;5047807;28;20457;-86
2021/08/01 02:42:58;;;;;;;8.03;7.23;;;16.90;99.90;;;;;;5042508;28;20452;-86
2021/08/01 02:45:26;;;;;;;8.47;7.50;;;16.80;99.90;;;;;;5042958;28;20498;-85
2021/08/01 02:47:54;;;;;;;10.00;7.33;;;16.80;99.90;;;;;;5041574;28;20476;-86
2021/08/01 02:50:24;;;;;;;6.93;6.23;;;16.70;99.90;;;;;;5036772;28;20465;-85
2021/08/01 02:52:58;;;;;;;9.23;6.60;;;16.80;99.90;;;;;;5037197;28;20544;-85
2021/08/01 02:55:28;;;;;;;9.30;7.67;;;16.80;99.90;;;;;;5050541;28;20944;-86
2021/08/01 02:57:55;;;;;;;7.20;6.50;;;16.80;99.90;;;;;;5062498;28;20451;-87
2021/08/01 03:00:22;;;;;;;8.53;7.73;;;16.80;99.90;;;;;;5063043;28;20467;-84
2021/08/01 03:02:51;;;;;;;7.87;7.13;;;16.80;99.90;;;;;;5060301;28;20440;-87
2021/08/01 03:05:19;;;;;;;7.57;6.97;;;16.80;99.90;;;;;;5060995;28;20486;-86
2021/08/01 03:07:46;;;;;;;8.13;7.43;;;16.80;99.90;;;;;;5059452;28;20454;-86
2021/08/01 03:10:14;;;;;;;7.63;6.93;;;16.70;99.90;;;;;;5061157;28;20487;-86
2021/08/01 03:12:43;;;;;;;7.97;7.30;;;16.70;99.90;;;;;;5057394;28;20441;-85
2021/08/01 03:15:10;;;;;;;9.07;8.13;;;16.80;99.90;;;;;;5055989;28;20454;-85
2021/08/01 03:17:37;;;;;;;12.00;8.60;;;16.80;99.90;;;;;;5056536;28;20447;-86
2021/08/01 03:20:07;;;;;;;9.17;7.70;;;16.80;99.90;;;;;;5053159;28;20465;-86
2021/08/01 03:22:34;;;;;;;10.30;7.13;;;16.80;99.90;;;;;;5052626;28;20453;-85
2021/08/01 03:25:01;;;;;;;7.70;7.03;;;16.80;99.90;;;;;;5064410;28;20513;-86
2021/08/01 03:27:28;;;;;;;9.20;7.40;;;16.80;99.90;;;;;;5062093;28;20448;-85
2021/08/01 03:29:54;;;;;;;9.20;8.37;;;16.80;99.90;;;;;;5052558;28;21036;-85
2021/08/01 03:32:22;;;;;;;9.07;7.70;;;16.70;99.90;;;;;;5040029;28;20453;-86
2021/08/01 03:34:49;;;;;;;10.97;8.77;;;16.70;99.90;;;;;;5043621;28;20440;-86
2021/08/01 03:37:18;;;;;;;9.60;8.77;;;16.70;99.90;;;;;;5060621;28;20555;-85
2021/08/01 03:39:44;;;;;;;8.97;8.17;;;16.70;99.90;;;;;;5064530;28;20465;-85
2021/08/01 03:42:11;;;;;;;9.20;8.20;;;16.70;99.90;;;;;;5064694;28;20447;-84
2021/08/01 03:44:38;;;;;;;9.47;8.17;;;16.80;99.90;;;;;;5066881;28;20473;-86
2021/08/01 03:47:05;;;;;;;9.40;7.83;;;16.70;99.90;;;;;;5052192;28;20445;-85
2021/08/01 03:49:32;;;;;;;9.43;8.07;;;16.70;99.90;;;;;;5047935;28;20460;-85
2021/08/01 03:51:58;;;;;;;9.80;8.50;;;16.70;99.90;;;;;;5046375;28;20438;-87
2021/08/01 03:54:27;;;;;;;10.17;8.77;;;16.70;99.90;;;;;;5045347;28;20531;-87
2021/08/01 03:56:53;;;;;;;8.80;8.10;;;16.70;99.90;;;;;;5045925;28;20797;-87
2021/08/01 03:59:20;;;;;;;10.47;8.63;;;16.70;99.90;;;;;;5060205;28;20459;-87
2021/08/01 04:01:47;;;;;;;9.53;8.43;;;16.70;99.90;;;;;;5064281;28;20460;-89
2021/08/01 04:04:13;;;;;;;9.63;8.73;;;16.70;99.90;;;;;;5062057;28;20444;-88
2021/08/01 04:06:40;;;;;;;8.30;7.47;;;16.70;99.90;;;;;;5061763;28;20447;-90
2021/08/01 04:09:10;;;;;;;7.90;7.20;;;16.70;99.90;;;;;;5059882;28;20832;-88
2021/08/01 04:11:44;;;;;;;9.57;8.67;;;16.60;99.90;;;;;;5062105;28;20563;-89
2021/08/01 04:14:11;;;;;;;9.93;8.90;;;16.60;99.90;;;;;;5042285;28;20449;-87
2021/08/01 04:16:38;;;;;;;9.43;8.63;;;16.60;99.90;;;;;;5039934;28;20961;-87
2021/08/01 04:19:13;;;;;;;10.60;8.63;;;16.60;99.90;;;;;;5040716;28;20469;-87
2021/08/01 04:21:40;;;;;;;10.87;8.70;;;16.60;99.90;;;;;;5042970;28;20461;-89
2021/08/01 04:24:08;;;;;;;10.70;9.57;;;16.60;99.90;;;;;;5045341;28;20456;-87
2021/08/01 04:26:34;;;;;;;9.47;8.57;;;16.60;99.90;;;;;;5046881;28;20472;-88
2021/08/01 04:29:03;;;;;;;9.40;8.40;;;16.60;99.90;;;;;;5062585;28;20543;-88
2021/08/01 04:31:30;;;;;;;10.77;8.23;;;16.60;99.90;;;;;;5065616;28;20471;-86
2021/08/01 04:33:57;;;;;;;14.80;9.57;;;16.60;99.90;;;;;;5064657;28;20437;-86
2021/08/01 04:36:24;;;;;;;12.33;9.70;;;16.60;99.90;;;;;;5069111;28;20444;-88
2021/08/01 04:38:51;;;;;;;9.37;8.53;;;16.60;99.90;;;;;;5060596;28;20456;-88
2021/08/01 04:41:17;;;;;;;10.50;9.03;;;16.60;99.90;;;;;;5065052;28;20462;-87
2021/08/01 04:43:44;;;;;;;10.40;8.77;;;16.60;99.90;;;;;;5065337;28;20448;-87
2021/08/01 04:46:13;;;;;;;9.93;7.53;;;16.60;99.90;;;;;;5065177;28;20552;-87
2021/08/01 04:48:39;;;;;;;8.63;7.83;;;16.50;99.90;;;;;;5068730;28;20504;-86
2021/08/01 04:51:06;;;;;;;8.23;7.50;;;16.50;99.90;;;;;;5078372;28;20460;-86
2021/08/01 04:53:33;;;;;;;9.20;8.27;;;16.40;99.90;;;;;;5060637;28;20448;-87
2021/08/01 04:56:00;;;;;;;9.90;8.87;;;16.40;99.90;;;;;;5054583;28;20567;-87
2021/08/01 04:58:27;;;;;;;10.63;8.67;;;16.40;99.90;;;;;;5057865;28;20433;-87
2021/08/01 05:00:53;;;;;;;11.43;9.70;;;16.30;99.90;;;;;;5047180;28;20479;-87
2021/08/01 05:03:22;;;;;;;10.17;9.13;;;16.30;99.90;;;;;;5045903;28;20445;-88
2021/08/01 05:05:48;;;;;;;9.97;8.90;;;16.30;99.90;;;;;;5040980;28;20948;-88
2021/08/01 05:08:23;;;;;;;10.37;9.43;;;16.30;99.90;;;;;;5044255;28;20513;-88
2021/08/01 05:10:51;;;;;;;10.77;9.77;;;16.30;99.90;;;;;;5034549;28;20561;-87
2021/08/01 05:13:20;;;;;;;10.73;9.70;;;16.30;99.90;;;;;;5034728;28;20436;-87
2021/08/01 05:15:51;;;;;;;11.13;9.63;;;16.40;99.90;;;;;;5035860;28;20447;-88
2021/08/01 05:18:22;;;;;;;13.10;10.57;;;16.40;99.90;;;;;;5034421;28;20437;-89
2021/08/01 05:20:55;;;;;;;8.60;7.90;;;16.50;99.90;;;;;;5033942;28;20825;-89
2021/08/01 05:23:25;;;;;;;8.70;7.80;;;16.50;99.90;;;;;;5034944;28;20877;-89
2021/08/01 05:25:52;;;;;;;10.63;7.90;;;16.50;99.90;;;;;;5034567;28;20854;-89
2021/08/01 05:28:23;;;;;;;10.57;8.00;;;16.50;99.90;;;;;;5037340;28;20450;-89
2021/08/01 05:30:59;;;;;;;10.30;8.23;;;16.60;99.90;;;;;;5061884;28;20475;-89
2021/08/01 05:33:29;;;;;;;8.63;7.70;;;16.60;99.90;;;;;;5061841;28;20448;-89
2021/08/01 05:35:58;;;;;;;12.97;8.07;;;16.50;99.90;;;;;;5073949;28;20441;-87
2021/08/01 05:38:38;;;;;;;9.73;7.33;;;16.60;99.90;;;;;;5078951;28;20412;-87
2021/08/01 05:41:07;;;;;;;7.80;7.10;;;16.50;99.90;;;;;;5079030;28;20498;-88
2021/08/01 05:43:41;;;;;;;10.97;7.90;;;16.60;99.90;;;;;;5078994;28;20512;-88
2021/08/01 05:46:11;;;;;;;8.80;8.00;;;16.60;99.90;;;;;;5064214;28;20495;-88
2021/08/01 05:48:45;;;;;;;9.90;9.00;;;16.60;99.90;;;;;;5044373;28;20643;-88
2021/08/01 05:51:16;;;;;;;8.57;7.60;;;16.60;99.90;;;;;;5043658;28;20560;-88
2021/08/01 05:53:45;;;;;;;9.03;8.17;;;16.70;99.90;;;;;;5038703;28;20528;-88
2021/08/01 05:56:13;;;;;;;9.93;8.30;;;16.80;99.90;;;;;;5045792;28;20480;-88
2021/08/01 05:58:43;;;;;;;9.07;8.27;;;16.80;99.90;;;;;;5038886;28;20500;-89
2021/08/01 06:01:20;;;;;;;7.77;7.10;;;16.90;99.90;;;;;;5035738;28;20473;-89
2021/08/01 06:03:50;;;;;;;9.47;7.93;;;17.00;99.90;;;;;;5015462;28;20442;-89
2021/08/01 06:06:23;;;;;;;9.60;7.43;;;17.00;99.90;;;;;;5015972;28;20492;-89
2021/08/01 06:08:56;;;;;;;9.23;7.70;;;17.10;99.90;;;;;;5015146;28;20468;-89
2021/08/01 06:11:26;;;;;;;8.77;8.00;;;17.10;99.90;;;;;;5014619;28;20804;-88
2021/08/01 06:13:55;;;;;;;8.57;7.67;;;17.00;99.90;;;;;;5014536;28;20946;-88
2021/08/01 06:16:30;;;;;;;8.20;7.40;;;16.90;99.90;;;;;;5028700;28;20536;-89
2021/08/01 06:19:02;;;;;;;9.27;7.47;;;17.00;99.90;;;;;;5057499;28;20948;-89
2021/08/01 06:21:32;;;;;;;7.17;6.57;;;17.00;99.90;;;;;;5061214;28;20472;-88
2021/08/01 06:24:12;;;;;;;8.13;7.20;;;17.00;99.90;;;;;;5053811;28;20785;-89
2021/08/01 06:26:42;;;;;;;8.30;7.50;;;16.90;99.90;;;;;;5052914;28;20839;-88
2021/08/01 06:29:13;;;;;;;7.50;6.77;;;16.90;99.90;;;;;;5052637;28;20952;-89
2021/08/01 06:31:43;;;;;;;7.63;6.80;;;16.90;99.90;;;;;;5051113;28;20465;-89
2021/08/01 06:34:14;;;;;;;7.13;6.43;;;17.00;99.90;;;;;;5053272;28;21039;-88
2021/08/01 06:36:46;;;;;;;7.33;6.73;;;17.10;99.90;;;;;;5052625;28;20765;-89
2021/08/01 06:39:17;;;;;;;9.40;7.20;;;17.10;99.90;;;;;;5052843;28;20448;-89
2021/08/01 06:41:46;;;;;;;8.37;7.60;;;17.20;99.90;;;;;;5052567;28;20560;-89
2021/08/01 06:44:15;;;;;;;7.53;6.57;;;17.20;99.90;;;;;;5052928;28;20456;-89
2021/08/01 06:46:59;;;;;;;9.40;8.60;;;17.30;99.90;;;;;;5033014;28;20477;-90
2021/08/01 06:49:44;;;;;;;6.80;6.30;;;17.30;99.90;;;;;;5034048;28;20950;-88
2021/08/01 06:52:12;;;;;;;7.90;7.20;;;17.30;99.90;;;;;;5033063;28;20837;-89
2021/08/01 06:54:48;;;;;;;7.80;7.00;;;17.40;99.90;;;;;;5032890;28;21049;-89
2021/08/01 06:57:18;;;;;;;7.97;7.27;;;17.50;99.90;;;;;;5032739;28;20507;-89
2021/08/01 07:00:04;;;;;;;6.70;6.10;;;17.60;99.90;;;;;;5041401;28;21260;-89
2021/08/01 07:02:50;;;;;;;6.80;6.10;;;17.60;99.90;;;;;;5052156;28;20900;-89
2021/08/01 07:05:29;;;;;;;8.27;7.47;;;17.60;99.90;;;;;;5052453;28;21107;-88
2021/08/01 07:08:04;;;;;;;7.77;7.10;;;17.70;99.90;;;;;;5060921;28;20467;-88
2021/08/01 07:10:31;;;;;;;8.07;7.27;;;17.90;99.90;;;;;;5068946;22;21069;-88
2021/08/01 07:13:02;;;;;;;8.53;7.77;;;18.00;99.90;;;;;;5012738;28;20528;-87
2021/08/01 07:15:29;;;;;;;6.40;5.80;;;18.10;99.90;;;;;;5013525;28;20470;-87
2021/08/01 07:17:57;;;;;;;6.53;5.93;;;18.20;99.90;;;;;;5013176;28;20445;-87
2021/08/01 07:20:26;;;;;;;6.70;5.83;;;18.30;99.90;;;;;;5016171;28;21012;-87
2021/08/01 07:22:52;;;;;;;6.57;6.07;;;18.30;99.90;;;;;;5033780;28;20456;-88
2021/08/01 07:25:20;;;;;;;6.33;5.83;;;18.20;99.90;;;;;;5033148;28;20441;-87
2021/08/01 07:27:47;;;;;;;7.63;6.33;;;18.30;99.90;;;;;;5031987;28;20828;-88
2021/08/01 07:30:14;;;;;;;7.37;6.57;;;18.30;99.90;;;;;;5012837;28;20466;-87
2021/08/01 07:32:41;;;;;;;6.40;5.90;;;18.40;99.90;;;;;;5014225;28;20468;-88
2021/08/01 07:35:09;;;;;;;6.23;5.63;;;18.30;99.90;;;;;;5013221;28;20433;-88
2021/08/01 07:37:37;;;;;;;6.07;5.50;;;18.20;99.90;;;;;;5019152;28;20446;-87
2021/08/01 07:40:05;;;;;;;6.37;5.63;;;18.20;99.90;;;;;;5034880;28;20472;-87
2021/08/01 07:42:31;;;;;;;6.50;5.90;;;18.10;99.90;;;;;;5040097;28;20859;-87
2021/08/01 07:45:02;;;;;;;7.97;6.00;;;18.00;99.90;;;;;;5038560;28;20953;-88
2021/08/01 07:47:31;;;;;;;6.73;6.23;;;17.90;99.90;;;;;;5023090;28;20506;-89
2021/08/01 07:49:59;;;;;;;7.30;6.67;;;17.90;99.90;;;;;;5019915;28;20458;-90
2021/08/01 07:52:26;;;;;;;8.40;6.83;;;17.80;99.90;;;;;;5020074;28;20445;-90
2021/08/01 07:54:56;;;;;;;6.60;6.00;;;17.90;99.90;;;;;;5019261;28;20458;-90
2021/08/01 07:57:26;;;;;;;7.20;6.50;;;17.80;99.90;;;;;;5020673;28;20446;-90
2021/08/01 07:59:54;;;;;;;11.50;7.10;;;17.70;99.90;;;;;;5018628;28;20458;-90
2021/08/01 08:02:21;;;;;;;6.70;6.20;;;17.60;99.90;;;;;;5022517;28;21003;-92
2021/08/01 08:04:48;;;;;;;7.73;6.67;;;17.60;99.90;;;;;;5036896;28;20454;-92
2021/08/01 08:07:15;;;;;;;7.23;6.63;;;17.50;99.90;;;;;;5046441;28;20472;-92
2021/08/01 08:09:42;;;;;;;7.13;6.53;;;17.50;99.90;;;;;;5044592;28;20435;-93
2021/08/01 08:12:10;;;;;;;7.17;6.57;;;17.50;99.90;;;;;;5036793;28;20466;-91
2021/08/01 08:14:38;;;;;;;8.50;7.80;;;17.50;99.90;;;;;;5036918;28;20454;-91
2021/08/01 08:17:05;;;;;;;7.97;7.27;;;17.60;99.90;;;;;;5025299;28;20450;-85
2021/08/01 08:19:32;;;;;;;12.43;8.90;;;17.70;99.90;;;;;;5022712;28;20450;-82
2021/08/01 08:21:59;;;;;;;7.70;7.07;;;17.80;99.90;;;;;;5017927;28;20853;-83
2021/08/01 08:24:27;;;;;;;7.30;6.67;;;17.80;99.90;;;;;;5019733;28;20450;-82
2021/08/01 08:26:54;;;;;;;7.60;6.90;;;17.80;99.90;;;;;;5027735;28;20484;-82
2021/08/01 08:29:23;;;;;;;6.70;6.10;;;17.90;99.90;;;;;;5040666;28;20453;-83
2021/08/01 08:31:51;;;;;;;7.50;6.70;;;18.10;99.90;;;;;;5040490;28;20469;-82
2021/08/01 08:34:18;;;;;;;7.40;6.50;;;18.10;99.90;;;;;;5041018;28;20433;-81
2021/08/01 08:36:48;;;;;;;7.00;6.40;;;18.30;99.90;;;;;;5040246;28;20969;-82
2021/08/01 08:39:15;;;;;;;6.77;6.17;;;18.40;99.90;;;;;;5040550;28;20448;-82
2021/08/01 08:41:42;;;;;;;7.03;6.37;;;18.60;99.90;;;;;;5040208;28;20539;-82
2021/08/01 08:44:08;;;;;;;7.03;5.10;;;18.70;99.90;;;;;;5042106;28;20450;-82
2021/08/01 08:46:38;;;;;;;6.67;5.97;;;18.70;99.90;;;;;;5037342;28;20492;-82
2021/08/01 08:49:08;;;;;;;6.07;5.57;;;18.70;99.90;;;;;;5022654;28;20458;-82
2021/08/01 08:51:38;;;;;;;14.83;6.60;;;18.80;99.90;;;;;;5024535;28;20462;-82
2021/08/01 08:54:07;;;;;;;5.63;5.03;;;18.70;99.90;;;;;;5034836;28;20462;-82
2021/08/01 08:56:35;;;;;;;5.70;5.20;;;18.70;99.90;;;;;;5043183;28;20444;-82
2021/08/01 08:59:02;;;;;;;5.70;5.20;;;18.60;99.90;;;;;;5056009;28;20464;-82
2021/08/01 09:01:28;;;;;;;11.63;5.30;;;18.60;99.90;;;;;;5046884;28;20475;-82
2021/08/01 09:03:56;;;;;;;5.50;5.03;;;18.70;99.90;;;;;;5039118;28;20458;-82
2021/08/01 09:06:23;;;;;;;5.83;5.43;;;18.70;99.90;;;;;;5029825;28;20477;-82
2021/08/01 09:08:53;;;;;;;5.53;5.03;;;19.00;99.90;;;;;;5023061;28;20530;-82
2021/08/01 09:11:19;;;;;;;6.73;6.13;;;19.10;99.90;;;;;;5024391;28;20549;-83
2021/08/01 09:13:48;;;;;;;6.60;5.83;;;19.50;99.90;;;;;;5027395;28;20455;-83
2021/08/01 09:16:16;;;;;;;5.10;4.70;;;19.50;99.90;;;;;;5042655;28;20454;-83
2021/08/01 09:18:43;;;;;;;4.83;4.33;;;19.60;99.90;;;;;;5041110;28;20441;-83
2021/08/01 09:21:28;;;;;;;5.20;4.60;;;19.80;99.90;;;;;;5040720;28;20843;-83
2021/08/01 09:23:55;;;;;;;4.10;3.80;;;19.90;99.90;;;;;;5023995;28;20448;-83
2021/08/01 09:26:21;;;;;;;6.00;5.37;;;20.00;99.90;;;;;;5021690;28;20479;-82
2021/08/01 09:29:02;;;;;;;5.00;4.50;;;20.10;99.90;;;;;;5023584;28;20861;-82
2021/08/01 09:31:29;;;;;;;4.73;4.33;;;20.10;99.90;;;;;;5020494;28;20471;-82
2021/08/01 09:33:56;;;;;;;5.33;4.83;;;20.20;99.90;;;;;;5035880;28;20455;-82
2021/08/01 09:36:25;;;;;;;5.03;4.50;;;20.20;99.90;;;;;;5020878;28;20441;-82
2021/08/01 09:38:53;;;;;;;4.83;4.43;;;20.20;99.90;;;;;;5016626;28;20455;-82
2021/08/01 09:41:21;;;;;;;4.53;4.13;;;20.30;99.90;;;;;;5019871;28;20456;-82
2021/08/01 09:43:50;;;;;;;5.33;4.83;;;20.30;99.90;;;;;;5028921;28;20432;-81
2021/08/01 09:46:17;;;;;;;6.63;4.63;;;20.40;99.90;;;;;;5021462;28;20479;-82
2021/08/01 09:48:44;;;;;;;6.30;5.80;;;20.20;99.90;;;;;;5016939;28;20463;-81
2021/08/01 09:51:12;;;;;;;6.80;5.27;;;20.10;99.90;;;;;;5013834;28;20898;-82
2021/08/01 09:53:40;;;;;;;5.57;5.07;;;20.00;99.90;;;;;;5015433;28;20448;-81
2021/08/01 09:56:14;;;;;;;7.30;6.20;;;20.00;99.90;;;;;;5015620;28;20448;-82
2021/08/01 09:58:42;;;;;;;5.73;5.23;;;19.80;99.90;;;;;;5013142;28;20446;-82
2021/08/01 10:01:09;;;;;;;5.07;4.67;;;19.70;99.90;;;;;;5015195;28;20505;-81
2021/08/01 10:03:37;;;;;;;5.60;5.03;;;19.60;99.90;;;;;;5019117;28;20963;-80
2021/08/01 10:06:12;;;;;;;6.50;6.00;;;19.50;99.90;;;;;;5015504;28;20534;-82
2021/08/01 10:08:41;;;;;;;5.50;5.10;;;19.50;99.90;;;;;;5014495;28;20454;-81
2021/08/01 10:11:10;;;;;;;6.90;6.20;;;19.40;99.90;;;;;;5014708;28;20484;-82
2021/08/01 10:13:37;;;;;;;6.00;5.50;;;19.30;99.90;;;;;;5023951;28;20468;-81
2021/08/01 10:16:05;;;;;;;4.80;4.40;;;19.20;99.90;;;;;;5029493;28;20436;-80
2021/08/01 10:18:31;;;;;;;4.70;3.90;;;19.20;99.90;;;;;;5033884;28;20443;-83
2021/08/01 10:20:59;;;;;;;5.30;3.80;;;19.10;99.90;;;;;;5026121;28;20467;-82
2021/08/01 10:23:27;;;;;;;4.57;4.00;;;19.00;99.90;;;;;;5022568;28;20453;-82
2021/08/01 10:25:55;;;;;;;5.93;4.40;;;19.00;99.90;;;;;;5033820;28;20451;-83
2021/08/01 10:28:24;;;;;;;5.47;4.20;;;19.00;99.90;;;;;;5032949;28;20482;-83
2021/08/01 10:30:52;;;;;;;3.80;3.60;;;19.30;99.90;;;;;;5026228;28;20462;-83
2021/08/01 10:33:23;;;;;;;3.73;3.43;;;19.60;99.90;;;;;;5017270;28;20458;-81
2021/08/01 10:35:57;;;;;;;4.23;3.83;;;20.40;99.90;;;;;;5017485;28;20898;-84
2021/08/01 10:38:26;;;;;;;4.57;3.70;;;21.20;99.90;;;;;;5021044;28;20433;-84
2021/08/01 10:40:59;;;;;;;5.27;3.80;;;21.90;99.90;;;;;;5019467;28;20472;-87
2021/08/01 10:43:28;;;;;;;4.00;3.33;;;22.00;99.90;;;;;;5016013;28;20453;-88
2021/08/01 10:45:56;;;;;;;4.07;3.63;;;21.90;99.90;;;;;;5015334;28;20473;-87
2021/08/01 10:48:25;;;;;;;6.97;3.70;;;22.00;99.90;;;;;;5015733;28;20477;-87
2021/08/01 10:50:52;;;;;;;6.40;3.17;;;22.30;99.90;;;;;;5022977;28;20470;-88
2021/08/01 10:53:29;;;;;;;4.03;3.63;;;22.50;99.90;;;;;;5025929;28;20443;-87
2021/08/01 10:56:34;;;;;;;3.93;3.63;;;22.70;99.90;;;;;;5016474;28;20445;-88
2021/08/01 10:59:01;;;;;;;3.90;3.60;;;22.70;99.90;;;;;;5016985;28;20450;-88
2021/08/01 11:01:28;;;;;;;3.53;3.23;;;22.60;99.90;;;;;;5020653;28;20482;-86
2021/08/01 11:04:37;;;;;;;4.20;3.37;;;22.60;99.90;;;;;;5019866;28;20936;-86
2021/08/01 11:07:04;;;;;;;6.77;3.57;;;23.00;99.90;;;;;;5018415;28;20530;-86
2021/08/01 11:09:31;;;;;;;3.33;3.03;;;23.30;99.90;;;;;;5026178;28;20537;-87
2021/08/01 11:12:33;;;;;;;3.40;3.10;;;22.90;99.90;;;;;;5033326;28;20471;-89
2021/08/01 11:15:01;;;;;;;3.50;3.30;;;23.00;99.90;;;;;;5014641;28;20530;-85
2021/08/01 11:17:57;;;;;;;4.37;3.30;;;22.80;99.90;;;;;;5024214;28;20455;-86
2021/08/01 11:20:49;;;;;;;4.53;3.60;;;22.60;99.90;;;;;;5020282;28;20451;-85
2021/08/01 11:23:16;;;;;;;3.53;3.23;;;22.60;99.90;;;;;;5025889;28;20440;-86
2021/08/01 11:26:07;;;;;;;4.83;3.60;;;22.80;99.90;;;;;;5030325;28;20443;-86
2021/08/01 11:28:36;;;;;;;5.53;3.80;;;22.90;99.90;;;;;;5040658;28;21060;-86
2021/08/01 11:31:21;;;;;;;4.07;3.77;;;22.70;99.90;;;;;;5035038;28;20462;-86
2021/08/01 11:33:50;;;;;;;5.80;3.50;;;22.70;99.90;;;;;;5021635;28;20443;-86
2021/08/01 11:36:25;;;;;;;4.30;3.90;;;23.00;99.90;;;;;;5019336;28;20968;-86
2021/08/01 11:39:06;;;;;;;4.63;3.43;;;23.60;98.70;;;;;;5019931;28;20444;-86
2021/08/01 11:41:41;;;;;;;5.17;4.17;;;23.70;98.50;;;;;;5032624;28;20486;-87
2021/08/01 11:44:15;;;;;;;3.50;3.20;;;24.00;97.40;;;;;;5035744;28;20484;-86
2021/08/01 11:47:04;;;;;;;3.63;3.33;;;24.30;97.30;;;;;;5033462;28;20485;-88
2021/08/01 11:49:33;;;;;;;4.20;3.90;;;24.30;97.70;;;;;;5020678;28;20536;-87
2021/08/01 11:52:03;;;;;;;4.10;3.70;;;24.00;96.70;;;;;;5017752;28;20446;-89
2021/08/01 11:54:31;;;;;;;3.80;3.20;;;24.00;97.70;;;;;;5017807;28;20440;-89
2021/08/01 11:57:01;;;;;;;5.13;3.30;;;24.50;97.60;;;;;;5014520;28;20461;-88
2021/08/01 11:59:30;;;;;;;3.87;3.50;;;24.60;95.70;;;;;;5018034;28;20441;-88
2021/08/01 12:01:58;;;;;;;4.70;4.00;;;24.70;96.30;;;;;;5017105;28;20451;-88
2021/08/01 12:04:25;;;;;;;4.90;4.50;;;24.90;96.00;;;;;;5021991;28;20473;-89
2021/08/01 12:06:54;;;;;;;4.23;3.60;;;25.20;94.70;;;;;;5019760;28;20437;-89
2021/08/01 12:09:23;;;;;;;3.93;3.50;;;25.60;93.70;;;;;;5021220;28;20594;-88
2021/08/01 12:11:51;;;;;;;4.17;3.83;;;25.60;93.30;;;;;;5018694;28;20461;-88
2021/08/01 12:14:18;;;;;;;4.23;3.93;;;25.00;93.40;;;;;;5020902;28;20450;-88
2021/08/01 12:16:57;;;;;;;5.03;3.80;;;24.50;94.00;;;;;;5028238;28;20453;-89
2021/08/01 12:19:27;;;;;;;4.10;3.80;;;24.00;94.40;;;;;;5029599;28;20546;-88
2021/08/01 12:21:56;;;;;;;5.70;3.93;;;23.50;94.60;;;;;;5026558;28;20461;-89
2021/08/01 12:24:27;;;;;;;6.20;4.50;;;23.20;96.10;;;;;;5027715;28;20432;-89
2021/08/01 12:26:59;;;;;;;5.70;4.37;;;22.70;97.10;;;;;;5029431;28;20472;-88
2021/08/01 12:29:34;;;;;;;5.40;4.80;;;22.30;98.50;;;;;;5029675;28;20754;-87
2021/08/01 12:32:17;;;;;;;5.70;4.30;;;22.10;99.30;;;;;;5022082;28;20540;-87
2021/08/01 12:34:44;;;;;;;7.07;4.90;;;21.80;99.70;;;;;;5027052;28;20514;-86
2021/08/01 12:37:11;;;;;;;4.90;4.50;;;21.80;99.50;;;;;;5024468;28;20439;-87
2021/08/01 12:39:45;;;;;;;5.73;4.77;;;21.70;99.70;;;;;;5027533;28;20857;-86
2021/08/01 12:42:11;;;;;;;5.70;4.97;;;21.80;99.80;;;;;;5020123;28;20457;-88
2021/08/01 12:44:50;;;;;;;4.77;4.37;;;21.70;99.90;;;;;;5038414;28;20440;-86
2021/08/01 12:47:18;;;;;;;5.23;4.53;;;21.90;99.90;;;;;;5033725;28;20530;-87
2021/08/01 12:49:45;;;;;;;7.03;5.03;;;21.90;99.90;;;;;;5032519;28;20444;-87
2021/08/01 12:52:17;;;;;;;5.23;4.57;;;22.30;99.90;;;;;;5023216;28;20460;-88
2021/08/01 12:54:45;;;;;;;4.67;4.27;;;23.20;99.90;;;;;;5021672;28;20448;-88
2021/08/01 12:57:11;;;;;;;5.33;4.07;;;25.10;98.30;;;;;;5022049;28;20845;-86
2021/08/01 12:59:38;;;;;;;4.47;4.03;;;26.10;95.30;;;;;;5021988;28;20457;-87